Forrest, Western Australia

2:10 AM AWST on May 25, 2015 (GMT +0800)
Forrest | | Change Station
CLOSE
Current Station
Airport
Location: Forrest,
Elevation: 525 ft
Nearby Weather Stations

Elev 525 ft 30.85 °S, 128.11 °E | Updated 10 minutes ago

Partly Cloudy
Partly Cloudy
57 °F
Feels Like 57 °F
N
7
Wind Variable Wind from NE
Gusts mph

Today
High -- | Low -- °F
--% Chance of Precip.
Yesterday
High -- | Low -- °F
Precip. -- in
6:12 AM 4:36 PM
Waxing Crescent, 41% visible
Pressure 30.18 in
Visibility -9999.0 miles
Clouds
Dew Point 57 °F
Humidity 100%
Rainfall 0.00 in
Snow Depth Not available.
UV Not available.
Pollen Not available.
Air Quality Not available.
Flu Activity Not available.
METAR YFRT 241800Z AUTO 04006KT //// // ////// 14/14 Q1022

More Conditions Fewer Conditions

Pressure 30.18 in
Visibility -9999.0 miles
Clouds
Dew Point 57 °F
Humidity 100%
Rainfall 0.00 in
Snow Depth Not available.
UV Not available.
Pollen Not available.
Air Quality Not available.
Flu Activity Not available.
METAR YFRT 241800Z AUTO 04006KT //// // ////// 14/14 Q1022

More Conditions Fewer Conditions

10-Day Weather Forecast

Almanac

Astronomy

May. 25, 2015 Rise Set
Actual Time
Civil Twilight
Nautical Twilight
Astronomical Twilight
Moon
Length of Visible Light
Length of Day
Tomorrow will be .
, % of the Moon is Illuminated

Today's Extremes

Country Highs Country Lows

Community

WunderPhotos

Upload Photos

1,823,817 photos uploaded!

WunderBlogs® & News

Nearby

Air Quality

  Air Quality AQ Index Pollutant
Not available.

Snow Depth

Station Depth Elevation

Earthquake Activity

City Distance Mag. Time & Date
Minimum magnitude displayed is 2.5.

Coastal Water Temperatures

Place Temperature

Stations

Nearby Weather Stations

Station Location Temp. Windchill Dew Point Humidity Wind Precip. Elev Updated Type